Aeroporto :
LOGIN :

Iscrizione | Disclaimer

   EN    FR    IT 

 










Sommario :    VFR   VFR Marginale   IFR   IFR Intensivo   IFR Molto Intensivo
Visibilità : 
Base nubi : 
>= 8 km
>= 3000ft
5 / 8 km
1000 / 3000 ft
1500m / 5 km
500 / 1000 ft
800 / 1500m
200 / 500 ft
< 800m
< 200 ft
Simboli :   Temporali  Nebbia  Neve Forte  Precipitazioni Forti  Vento > 20 kt
SIGMETs :   Varie  Temporali  Ghiacco  Turbolenza  Onda orograficha  Ceneri Vulcaniche






- Altitudine del aeroporto : 3463 ft
- Codice IATA : ASR


LTAU - Erkilet AB

ULTIMO METAR :
  • 050350Z 05002KT CAVOK 11/06 Q1021 NOSIG RMK RWY07 05004KT

METARs OBSOLETI :
  • 050320Z 05004KT CAVOK 08/05 Q1020 NOSIG RMK RWY07 05006KT
  • 050250Z 06004KT CAVOK 06/04 Q1020 NOSIG RMK RWY07 06004KT
  • 050220Z 04004KT CAVOK 06/03 Q1020 NOSIG
  • 050150Z 05005KT CAVOK 06/04 Q1020 NOSIG RMK RWY07 05004KT
  • 050120Z 05005KT CAVOK 06/04 Q1019 NOSIG RMK RWY07 06003KT

TAF TAF LTAU
Valido dal 05 a 00 ore il 06 a 00 ore UTC


042240Z 0500/0524 VRB02KT CAVOK
BECMG 0506/0509 FEW040
BECMG 0514/0517 CAVOK



MetMap, La meteo Aeronautica in un colpo d'occhio ! - Copyright ORBIFLY Dicembre 2007 - Disclaimer

ORBIFLY MET'MAP TEAM :

Programmazione e sviluppo : Alexandra Zaïnal
Concezione : Baudouin d'Aumeries
Aiuto per la programmazione : Marc-Olivier Méhu
Supporto tecnico e logistico : Manuel Goepfert
Aiuto per la traduzione : Arnaldo La Scala

Contatto : metmap@orbifly.com




FONTI E CREDITI :

   NOAA